Gasconade River (Missouri), Jerome (06933500)

StateMissouriCurrentGood (1390 cfs)
RiverGasconade RiverFlood - The river is flooding. Obstacles can be treacherous or deadly. The river should be avoided at this stage for casual trips and definitely for the inexperienced. Trips should be attempted only with protective gear and equipment.Flood(none)
Updated2019-10-14 2:45 (1 hour ago)High - The river is high and potentially dangerous, especially for the young and / or inexperienced. Normal stream obstacles are sometimes difficult to navigate. Extended distances can be attempted, but canoe travel may not be advisable.High(none)
Discharge1390 cfs (median: 669 cfs)Good - Conditions are ideal for a canoe or kayak. Boats typically will drag on fewer than one-quarter of riffles, if at all, and portages are unnecessary or rare. Normal float lengths can be attempted without a problem.Good400
Height2.47 feetLow - River is low but can still be floated. Some riffles are okay but most come with significant dragging and might need a portage. Float lengths should be reduced to accommodate low flow, dragging, and portages.Low(none)
TrendSteady (rising over 24 hours)Poor - River is too low to float comfortably. Most or all riffles will drag or must be portaged and some obstacles (such as slick shelf rock) cause undue problems. Avoid the river at this stage for casual paddling trips.Poor(none)
USGSExternal icon USGS Site for Jerome (06933500)LocationExternal icon Google Maps

Trending Data

Plot Image
ObservationHeightDischargeMaximum
Discharge
Minimum
Discharge
Mean
Discharge
P05P10P20P25P50
(Median)
P75P80P90P95
2019-10-14 02:45 2.47 1390 24000 (1950) 286 (1957) 1300 350 409 510 530 669 1050 1310 2210 3850
2019-10-14 01:45 2.47 1390 24000 (1950) 286 (1957) 1300 350 409 510 530 669 1050 1310 2210 3850
2019-10-14 00:45 2.47 1390 24000 (1950) 286 (1957) 1300 350 409 510 530 669 1050 1310 2210 3850
2019-10-13 23:45 2.47 1390 29500 (1950) 292 (1957) 1320 346 413 496 530 665 981 1200 2040 3550
2019-10-13 22:45 2.47 1390 29500 (1950) 292 (1957) 1320 346 413 496 530 665 981 1200 2040 3550
2019-10-13 21:45 2.47 1390 29500 (1950) 292 (1957) 1320 346 413 496 530 665 981 1200 2040 3550
2019-10-13 20:45 2.48 1400 29500 (1950) 292 (1957) 1320 346 413 496 530 665 981 1200 2040 3550
2019-10-13 19:45 2.48 1400 29500 (1950) 292 (1957) 1320 346 413 496 530 665 981 1200 2040 3550
2019-10-13 18:45 2.48 1400 29500 (1950) 292 (1957) 1320 346 413 496 530 665 981 1200 2040 3550
2019-10-13 17:45 2.49 1410 29500 (1950) 292 (1957) 1320 346 413 496 530 665 981 1200 2040 3550
2019-10-13 16:45 2.51 1430 29500 (1950) 292 (1957) 1320 346 413 496 530 665 981 1200 2040 3550
2019-10-13 15:45 2.52 1440 29500 (1950) 292 (1957) 1320 346 413 496 530 665 981 1200 2040 3550
2019-10-13 14:45 2.52 1440 29500 (1950) 292 (1957) 1320 346 413 496 530 665 981 1200 2040 3550
2019-10-13 13:45 2.54 1460 29500 (1950) 292 (1957) 1320 346 413 496 530 665 981 1200 2040 3550
2019-10-13 12:45 2.55 1460 29500 (1950) 292 (1957) 1320 346 413 496 530 665 981 1200 2040 3550
2019-10-13 11:45 2.56 1470 29500 (1950) 292 (1957) 1320 346 413 496 530 665 981 1200 2040 3550
2019-10-13 10:45 2.57 1480 29500 (1950) 292 (1957) 1320 346 413 496 530 665 981 1200 2040 3550
2019-10-13 09:45 2.58 1490 29500 (1950) 292 (1957) 1320 346 413 496 530 665 981 1200 2040 3550
2019-10-13 08:45 2.58 1490 29500 (1950) 292 (1957) 1320 346 413 496 530 665 981 1200 2040 3550
2019-10-13 07:45 2.56 1470 29500 (1950) 292 (1957) 1320 346 413 496 530 665 981 1200 2040 3550
2019-10-13 06:45 2.54 1460 29500 (1950) 292 (1957) 1320 346 413 496 530 665 981 1200 2040 3550
2019-10-13 05:45 2.48 1400 29500 (1950) 292 (1957) 1320 346 413 496 530 665 981 1200 2040 3550
2019-10-13 04:45 2.38 1310 29500 (1950) 292 (1957) 1320 346 413 496 530 665 981 1200 2040 3550
2019-10-13 03:45 2.23 1170 29500 (1950) 292 (1957) 1320 346 413 496 530 665 981 1200 2040 3550
2019-10-13 02:45 2.08 1040 29500 (1950) 292 (1957) 1320 346 413 496 530 665 981 1200 2040 3550
2019-10-13 01:45 1.97 951 29500 (1950) 292 (1957) 1320 346 413 496 530 665 981 1200 2040 3550
2019-10-13 00:45 1.92 912 29500 (1950) 292 (1957) 1320 346 413 496 530 665 981 1200 2040 3550
2019-10-12 23:45 1.90 897 28600 (1950) 292 (1957) 1430 343 418 492 519 665 1000 1230 2550 3750
2019-10-12 22:45 1.90 897 28600 (1950) 292 (1957) 1430 343 418 492 519 665 1000 1230 2550 3750
2019-10-12 21:45 1.90 897 28600 (1950) 292 (1957) 1430 343 418 492 519 665 1000 1230 2550 3750
2019-10-12 20:45 1.90 897 28600 (1950) 292 (1957) 1430 343 418 492 519 665 1000 1230 2550 3750
2019-10-12 19:45 1.90 897 28600 (1950) 292 (1957) 1430 343 418 492 519 665 1000 1230 2550 3750
2019-10-12 18:45 1.91 905 28600 (1950) 292 (1957) 1430 343 418 492 519 665 1000 1230 2550 3750
2019-10-12 17:45 1.91 905 28600 (1950) 292 (1957) 1430 343 418 492 519 665 1000 1230 2550 3750
2019-10-12 16:45 1.92 912 28600 (1950) 292 (1957) 1430 343 418 492 519 665 1000 1230 2550 3750
2019-10-12 15:45 1.92 912 28600 (1950) 292 (1957) 1430 343 418 492 519 665 1000 1230 2550 3750
2019-10-12 14:45 1.92 912 28600 (1950) 292 (1957) 1430 343 418 492 519 665 1000 1230 2550 3750
2019-10-12 13:45 1.92 912 28600 (1950) 292 (1957) 1430 343 418 492 519 665 1000 1230 2550 3750
2019-10-12 12:45 1.93 920 28600 (1950) 292 (1957) 1430 343 418 492 519 665 1000 1230 2550 3750
2019-10-12 11:45 1.93 920 28600 (1950) 292 (1957) 1430 343 418 492 519 665 1000 1230 2550 3750
2019-10-12 10:45 1.93 920 28600 (1950) 292 (1957) 1430 343 418 492 519 665 1000 1230 2550 3750
2019-10-12 09:45 1.94 928 28600 (1950) 292 (1957) 1430 343 418 492 519 665 1000 1230 2550 3750
2019-10-12 08:45 1.94 928 28600 (1950) 292 (1957) 1430 343 418 492 519 665 1000 1230 2550 3750
2019-10-12 07:45 1.94 928 28600 (1950) 292 (1957) 1430 343 418 492 519 665 1000 1230 2550 3750
2019-10-12 06:45 1.94 928 28600 (1950) 292 (1957) 1430 343 418 492 519 665 1000 1230 2550 3750
2019-10-12 05:45 1.94 928 28600 (1950) 292 (1957) 1430 343 418 492 519 665 1000 1230 2550 3750
2019-10-12 04:45 1.95 936 28600 (1950) 292 (1957) 1430 343 418 492 519 665 1000 1230 2550 3750
2019-10-12 03:45 1.95 936 28600 (1950) 292 (1957) 1430 343 418 492 519 665 1000 1230 2550 3750
2019-10-12 02:45 1.95 936 28600 (1950) 292 (1957) 1430 343 418 492 519 665 1000 1230 2550 3750
2019-10-12 01:45 1.95 936 28600 (1950) 292 (1957) 1430 343 418 492 519 665 1000 1230 2550 3750
2019-10-12 00:45 1.95 936 28600 (1950) 292 (1957) 1430 343 418 492 519 665 1000 1230 2550 3750
2019-10-11 23:45 1.95 936 18700 (2010) 286 (1957) 1300 345 423 494 512 657 951 1240 2400 3940
2019-10-11 22:45 1.95 936 18700 (2010) 286 (1957) 1300 345 423 494 512 657 951 1240 2400 3940
2019-10-11 21:45 1.95 936 18700 (2010) 286 (1957) 1300 345 423 494 512 657 951 1240 2400 3940
2019-10-11 20:45 1.95 936 18700 (2010) 286 (1957) 1300 345 423 494 512 657 951 1240 2400 3940
2019-10-11 19:45 1.96 944 18700 (2010) 286 (1957) 1300 345 423 494 512 657 951 1240 2400 3940
2019-10-11 18:45 1.96 944 18700 (2010) 286 (1957) 1300 345 423 494 512 657 951 1240 2400 3940
2019-10-11 17:45 1.96 944 18700 (2010) 286 (1957) 1300 345 423 494 512 657 951 1240 2400 3940
2019-10-11 16:45 1.96 944 18700 (2010) 286 (1957) 1300 345 423 494 512 657 951 1240 2400 3940
2019-10-11 15:45 1.96 944 18700 (2010) 286 (1957) 1300 345 423 494 512 657 951 1240 2400 3940
2019-10-11 14:45 1.96 944 18700 (2010) 286 (1957) 1300 345 423 494 512 657 951 1240 2400 3940
2019-10-11 13:45 1.95 936 18700 (2010) 286 (1957) 1300 345 423 494 512 657 951 1240 2400 3940
2019-10-11 12:45 1.95 936 18700 (2010) 286 (1957) 1300 345 423 494 512 657 951 1240 2400 3940
2019-10-11 11:45 1.94 928 18700 (2010) 286 (1957) 1300 345 423 494 512 657 951 1240 2400 3940
2019-10-11 10:45 1.93 920 18700 (2010) 286 (1957) 1300 345 423 494 512 657 951 1240 2400 3940
2019-10-11 09:45 1.92 912 18700 (2010) 286 (1957) 1300 345 423 494 512 657 951 1240 2400 3940
2019-10-11 08:45 1.91 905 18700 (2010) 286 (1957) 1300 345 423 494 512 657 951 1240 2400 3940
2019-10-11 07:45 1.89 889 18700 (2010) 286 (1957) 1300 345 423 494 512 657 951 1240 2400 3940
2019-10-11 06:45 1.88 882 18700 (2010) 286 (1957) 1300 345 423 494 512 657 951 1240 2400 3940
2019-10-11 05:45 1.86 866 18700 (2010) 286 (1957) 1300 345 423 494 512 657 951 1240 2400 3940
2019-10-11 04:45 1.84 851 18700 (2010) 286 (1957) 1300 345 423 494 512 657 951 1240 2400 3940
2019-10-11 03:45 1.81 829 18700 (2010) 286 (1957) 1300 345 423 494 512 657 951 1240 2400 3940
2019-10-11 02:45 1.78 807 18700 (2010) 286 (1957) 1300 345 423 494 512 657 951 1240 2400 3940
2019-10-11 01:45 1.76 792 18700 (2010) 286 (1957) 1300 345 423 494 512 657 951 1240 2400 3940
2019-10-11 00:45 1.73 770 18700 (2010) 286 (1957) 1300 345 423 494 512 657 951 1240 2400 3940
2019-10-10 23:45 1.72 763 20300 (2010) 281 (1957) 1310 347 395 489 507 671 992 1320 2700 4790
2019-10-10 22:45 1.71 756 20300 (2010) 281 (1957) 1310 347 395 489 507 671 992 1320 2700 4790
2019-10-10 21:45 1.71 756 20300 (2010) 281 (1957) 1310 347 395 489 507 671 992 1320 2700 4790
2019-10-10 20:45 1.70 749 20300 (2010) 281 (1957) 1310 347 395 489 507 671 992 1320 2700 4790
2019-10-10 19:45 1.69 741 20300 (2010) 281 (1957) 1310 347 395 489 507 671 992 1320 2700 4790
2019-10-10 18:45 1.68 734 20300 (2010) 281 (1957) 1310 347 395 489 507 671 992 1320 2700 4790
2019-10-10 17:45 1.68 734 20300 (2010) 281 (1957) 1310 347 395 489 507 671 992 1320 2700 4790
2019-10-10 16:45 1.66 720 20300 (2010) 281 (1957) 1310 347 395 489 507 671 992 1320 2700 4790
2019-10-10 15:45 1.63 699 20300 (2010) 281 (1957) 1310 347 395 489 507 671 992 1320 2700 4790
2019-10-10 14:45 1.60 678 20300 (2010) 281 (1957) 1310 347 395 489 507 671 992 1320 2700 4790
2019-10-10 13:45 1.60 678 20300 (2010) 281 (1957) 1310 347 395 489 507 671 992 1320 2700 4790
2019-10-10 12:45 1.59 672 20300 (2010) 281 (1957) 1310 347 395 489 507 671 992 1320 2700 4790
2019-10-10 11:45 1.59 672 20300 (2010) 281 (1957) 1310 347 395 489 507 671 992 1320 2700 4790
2019-10-10 10:45 1.59 672 20300 (2010) 281 (1957) 1310 347 395 489 507 671 992 1320 2700 4790
2019-10-10 09:45 1.59 672 20300 (2010) 281 (1957) 1310 347 395 489 507 671 992 1320 2700 4790
2019-10-10 08:45 1.60 678 20300 (2010) 281 (1957) 1310 347 395 489 507 671 992 1320 2700 4790
2019-10-10 07:45 1.59 672 20300 (2010) 281 (1957) 1310 347 395 489 507 671 992 1320 2700 4790
2019-10-10 06:45 1.59 672 20300 (2010) 281 (1957) 1310 347 395 489 507 671 992 1320 2700 4790
2019-10-10 05:45 1.59 672 20300 (2010) 281 (1957) 1310 347 395 489 507 671 992 1320 2700 4790
2019-10-10 04:45 1.59 672 20300 (2010) 281 (1957) 1310 347 395 489 507 671 992 1320 2700 4790
2019-10-10 03:45 1.59 672 20300 (2010) 281 (1957) 1310 347 395 489 507 671 992 1320 2700 4790
2019-10-10 02:45 1.59 672 20300 (2010) 281 (1957) 1310 347 395 489 507 671 992 1320 2700 4790
2019-10-10 01:45 1.59 672 20300 (2010) 281 (1957) 1310 347 395 489 507 671 992 1320 2700 4790
2019-10-10 00:45 1.59 672 20300 (2010) 281 (1957) 1310 347 395 489 507 671 992 1320 2700 4790
2019-10-09 23:45 1.59 672 17100 (2010) 281 (1957) 1290 345 400 461 507 693 1020 1400 3040 4770
2019-10-09 22:45 1.59 672 17100 (2010) 281 (1957) 1290 345 400 461 507 693 1020 1400 3040 4770
2019-10-09 21:45 1.59 672 17100 (2010) 281 (1957) 1290 345 400 461 507 693 1020 1400 3040 4770
2019-10-09 20:45 1.59 672 17100 (2010) 281 (1957) 1290 345 400 461 507 693 1020 1400 3040 4770
2019-10-09 19:45 1.59 672 17100 (2010) 281 (1957) 1290 345 400 461 507 693 1020 1400 3040 4770
2019-10-09 18:45 1.59 672 17100 (2010) 281 (1957) 1290 345 400 461 507 693 1020 1400 3040 4770
2019-10-09 17:45 1.59 672 17100 (2010) 281 (1957) 1290 345 400 461 507 693 1020 1400 3040 4770
2019-10-09 16:45 1.59 672 17100 (2010) 281 (1957) 1290 345 400 461 507 693 1020 1400 3040 4770
2019-10-09 15:45 1.59 672 17100 (2010) 281 (1957) 1290 345 400 461 507 693 1020 1400 3040 4770
2019-10-09 14:45 1.59 672 17100 (2010) 281 (1957) 1290 345 400 461 507 693 1020 1400 3040 4770
2019-10-09 13:45 1.59 672 17100 (2010) 281 (1957) 1290 345 400 461 507 693 1020 1400 3040 4770
2019-10-09 12:45 1.59 672 17100 (2010) 281 (1957) 1290 345 400 461 507 693 1020 1400 3040 4770
2019-10-09 11:45 1.59 672 17100 (2010) 281 (1957) 1290 345 400 461 507 693 1020 1400 3040 4770
2019-10-09 10:45 1.60 678 17100 (2010) 281 (1957) 1290 345 400 461 507 693 1020 1400 3040 4770
2019-10-09 09:45 1.60 678 17100 (2010) 281 (1957) 1290 345 400 461 507 693 1020 1400 3040 4770
2019-10-09 08:45 1.60 678 17100 (2010) 281 (1957) 1290 345 400 461 507 693 1020 1400 3040 4770
2019-10-09 07:45 1.60 678 17100 (2010) 281 (1957) 1290 345 400 461 507 693 1020 1400 3040 4770
2019-10-09 06:45 1.60 678 17100 (2010) 281 (1957) 1290 345 400 461 507 693 1020 1400 3040 4770
2019-10-09 05:45 1.60 678 17100 (2010) 281 (1957) 1290 345 400 461 507 693 1020 1400 3040 4770
2019-10-09 04:45 1.60 678 17100 (2010) 281 (1957) 1290 345 400 461 507 693 1020 1400 3040 4770
2019-10-09 03:45 1.60 678 17100 (2010) 281 (1957) 1290 345 400 461 507 693 1020 1400 3040 4770
2019-10-09 02:45 1.60 678 17100 (2010) 281 (1957) 1290 345 400 461 507 693 1020 1400 3040 4770
2019-10-09 01:45 1.60 678 17100 (2010) 281 (1957) 1290 345 400 461 507 693 1020 1400 3040 4770
2019-10-09 00:45 1.60 678 17100 (2010) 281 (1957) 1290 345 400 461 507 693 1020 1400 3040 4770
2019-10-08 23:45 1.60 678 15900 (1904) 281 (1957) 1250 350 406 476 503 675 1090 1270 2990 3790
2019-10-08 22:45 1.60 678 15900 (1904) 281 (1957) 1250 350 406 476 503 675 1090 1270 2990 3790
2019-10-08 21:45 1.60 678 15900 (1904) 281 (1957) 1250 350 406 476 503 675 1090 1270 2990 3790
2019-10-08 20:45 1.60 678 15900 (1904) 281 (1957) 1250 350 406 476 503 675 1090 1270 2990 3790
2019-10-08 19:45 1.60 678 15900 (1904) 281 (1957) 1250 350 406 476 503 675 1090 1270 2990 3790
2019-10-08 18:45 1.60 678 15900 (1904) 281 (1957) 1250 350 406 476 503 675 1090 1270 2990 3790
2019-10-08 17:45 1.60 678 15900 (1904) 281 (1957) 1250 350 406 476 503 675 1090 1270 2990 3790
2019-10-08 16:45 1.60 678 15900 (1904) 281 (1957) 1250 350 406 476 503 675 1090 1270 2990 3790
2019-10-08 15:45 1.60 678 15900 (1904) 281 (1957) 1250 350 406 476 503 675 1090 1270 2990 3790
2019-10-08 14:45 1.60 678 15900 (1904) 281 (1957) 1250 350 406 476 503 675 1090 1270 2990 3790
2019-10-08 13:45 1.60 678 15900 (1904) 281 (1957) 1250 350 406 476 503 675 1090 1270 2990 3790
2019-10-08 12:45 1.60 678 15900 (1904) 281 (1957) 1250 350 406 476 503 675 1090 1270 2990 3790
2019-10-08 11:45 1.60 678 15900 (1904) 281 (1957) 1250 350 406 476 503 675 1090 1270 2990 3790
2019-10-08 10:45 1.60 678 15900 (1904) 281 (1957) 1250 350 406 476 503 675 1090 1270 2990 3790
2019-10-08 09:45 1.60 678 15900 (1904) 281 (1957) 1250 350 406 476 503 675 1090 1270 2990 3790
2019-10-08 08:45 1.59 672 15900 (1904) 281 (1957) 1250 350 406 476 503 675 1090 1270 2990 3790
2019-10-08 07:45 1.59 672 15900 (1904) 281 (1957) 1250 350 406 476 503 675 1090 1270 2990 3790
2019-10-08 06:45 1.59 672 15900 (1904) 281 (1957) 1250 350 406 476 503 675 1090 1270 2990 3790
2019-10-08 05:45 1.59 672 15900 (1904) 281 (1957) 1250 350 406 476 503 675 1090 1270 2990 3790
2019-10-08 04:45 1.59 672 15900 (1904) 281 (1957) 1250 350 406 476 503 675 1090 1270 2990 3790
2019-10-08 03:45 1.59 672 15900 (1904) 281 (1957) 1250 350 406 476 503 675 1090 1270 2990 3790
2019-10-08 02:45 1.59 672 15900 (1904) 281 (1957) 1250 350 406 476 503 675 1090 1270 2990 3790
2019-10-08 01:45 1.59 672 15900 (1904) 281 (1957) 1250 350 406 476 503 675 1090 1270 2990 3790
2019-10-08 00:45 1.59 672 15900 (1904) 281 (1957) 1250 350 406 476 503 675 1090 1270 2990 3790
2019-10-07 23:45 1.59 672 13300 (1950) 276 (1957) 1220 350 411 475 503 675 1050 1230 2960 4220
2019-10-07 22:45 1.59 672 13300 (1950) 276 (1957) 1220 350 411 475 503 675 1050 1230 2960 4220
2019-10-07 21:45 1.59 672 13300 (1950) 276 (1957) 1220 350 411 475 503 675 1050 1230 2960 4220
2019-10-07 20:45 1.59 672 13300 (1950) 276 (1957) 1220 350 411 475 503 675 1050 1230 2960 4220
2019-10-07 19:45 1.59 672 13300 (1950) 276 (1957) 1220 350 411 475 503 675 1050 1230 2960 4220
2019-10-07 18:45 1.59 672 13300 (1950) 276 (1957) 1220 350 411 475 503 675 1050 1230 2960 4220
2019-10-07 17:45 1.59 672 13300 (1950) 276 (1957) 1220 350 411 475 503 675 1050 1230 2960 4220
2019-10-07 16:45 1.60 678 13300 (1950) 276 (1957) 1220 350 411 475 503 675 1050 1230 2960 4220
2019-10-07 15:45 1.60 678 13300 (1950) 276 (1957) 1220 350 411 475 503 675 1050 1230 2960 4220
2019-10-07 14:45 1.60 678 13300 (1950) 276 (1957) 1220 350 411 475 503 675 1050 1230 2960 4220
2019-10-07 13:45 1.60 678 13300 (1950) 276 (1957) 1220 350 411 475 503 675 1050 1230 2960 4220
2019-10-07 12:45 1.60 678 13300 (1950) 276 (1957) 1220 350 411 475 503 675 1050 1230 2960 4220
2019-10-07 11:45 1.60 678 13300 (1950) 276 (1957) 1220 350 411 475 503 675 1050 1230 2960 4220
2019-10-07 10:45 1.60 678 13300 (1950) 276 (1957) 1220 350 411 475 503 675 1050 1230 2960 4220
2019-10-07 09:45 1.60 678 13300 (1950) 276 (1957) 1220 350 411 475 503 675 1050 1230 2960 4220
2019-10-07 08:45 1.60 678 13300 (1950) 276 (1957) 1220 350 411 475 503 675 1050 1230 2960 4220
2019-10-07 07:45 1.60 678 13300 (1950) 276 (1957) 1220 350 411 475 503 675 1050 1230 2960 4220
2019-10-07 06:45 1.60 678 13300 (1950) 276 (1957) 1220 350 411 475 503 675 1050 1230 2960 4220
2019-10-07 05:45 1.60 678 13300 (1950) 276 (1957) 1220 350 411 475 503 675 1050 1230 2960 4220
2019-10-07 04:45 1.60 678 13300 (1950) 276 (1957) 1220 350 411 475 503 675 1050 1230 2960 4220
2019-10-07 03:45 1.60 678 13300 (1950) 276 (1957) 1220 350 411 475 503 675 1050 1230 2960 4220
2019-10-07 02:45 1.60 678 13300 (1950) 276 (1957) 1220 350 411 475 503 675 1050 1230 2960 4220
2019-10-07 01:45 1.60 678 13300 (1950) 276 (1957) 1220 350 411 475 503 675 1050 1230 2960 4220
2019-10-07 00:45 1.60 678 13300 (1950) 276 (1957) 1220 350 411 475 503 675 1050 1230 2960 4220

A total of 171 rows are displayed for years 1904 through 2018.

Trips for Gasconade River (Missouri), Jerome (06933500)

DateStartEndDistanceConditionDischargeHeightFishingDetails
Click for details2011-08-13 MO 28 Jerome Total trip distance: 10.8 miles10.8 Good 1660 2.91 None NoneNone Bowe, Michelle
Edmond, Alex
Edmond, Brian
Edmond, Joseph
Edmond, Julian
Bowe, Michelle; Edmond, Alex; Edmond, Brian; Edmond, Joseph; Edmond, Julian
No notes for this trip<i>No notes for this trip</i> USGS Gauge Data:
Jerome (06933500)
Discharge: 1660
Height: 2.91
<b>USGS Gauge Data:</b></br />Jerome (06933500)<br />Discharge: 1660<br />Height: 2.91
Source: EdmondSource: Edmond
Click for details2011-07-10 Little Piney Creek Jerome Total trip distance: 6.0 miles1.2 Good 1040 2.27 None NoneNone Bowe, Michelle
Edmond, Brian
Edmond, Julian
Bowe, Michelle; Edmond, Brian; Edmond, Julian
No notes for this trip<i>No notes for this trip</i> USGS Gauge Data:
Jerome (06933500)
Discharge: 1040
Height: 2.27
<b>USGS Gauge Data:</b></br />Jerome (06933500)<br />Discharge: 1040<br />Height: 2.27
Source: EdmondSource: Edmond
Click for details2012-08-18 Jerome Whitehouse Ford Total trip distance: 3.0 miles3.0 Good 475 1.36 None NoneNone Bowe, Michelle
Edmond, Brian
Edmond, Julian
Bowe, Michelle; Edmond, Brian; Edmond, Julian
The river was low and slow, but we were down far enough that we easily floated through the riffles without dragging. Even with slow water, ample stops, and a backwater excursion, we made the short trip in about four hours.The river was low and slow, but we were down far enough that we easily floated through the riffles without dragging.  Even with slow water, ample stops, and a backwater excursion, we made the short trip in about four hours. USGS Gauge Data:
Jerome (06933500)
Discharge: 475
Height: 1.36
<b>USGS Gauge Data:</b></br />Jerome (06933500)<br />Discharge: 475<br />Height: 1.36
Source: EdmondSource: Edmond

A total of 3 rows are displayed.

Trip Summary for Gasconade River (Missouri), Jerome (06933500)

Miles15
Trips3
People5
Dates3
Years2
Months2
Rows3
Sources1

Condition Descriptions

Fishing Conditions

Fish Species

Notes

Classic Trip List

The classic River Trips application is still available for use. It is updated with the new system using a data retrofit. It is no longer maintained. The original River Trips application is no longer updated (as of 1 Dec 2016) but can be checked for errors or for the condition of the data before it was converted to the new system.